sensor_id;sensor_type;location;lat;lon;timestamp;pressure;altitude;pressure_sealevel;temperature;humidity
29985;BME280;17387;42.690;23.328;2022-10-17T00:00:27;47689.41;;;-144.02;nan
29985;BME280;17387;42.690;23.328;2022-10-17T00:02:56;47725.97;;;-144.02;nan
29985;BME280;17387;42.690;23.328;2022-10-17T00:05:22;47701.59;;;-144.02;nan
29985;BME280;17387;42.690;23.328;2022-10-17T00:07:47;47685.34;;;-144.02;nan
29985;BME280;17387;42.690;23.328;2022-10-17T00:10:13;47801.75;;;-144.02;nan
29985;BME280;17387;42.690;23.328;2022-10-17T00:12:38;47697.53;;;-144.02;nan
29985;BME280;17387;42.690;23.328;2022-10-17T00:15:05;47725.97;;;-144.02;nan
29985;BME280;17387;42.690;23.328;2022-10-17T00:17:31;47697.53;;;-144.02;nan
29985;BME280;17387;42.690;23.328;2022-10-17T00:20:00;47685.34;;;-144.02;nan
29985;BME280;17387;42.690;23.328;2022-10-17T00:22:26;47677.22;;;-144.02;nan
29985;BME280;17387;42.690;23.328;2022-10-17T00:24:51;47660.97;;;-144.02;nan
29985;BME280;17387;42.690;23.328;2022-10-17T00:27:17;47681.28;;;-144.02;nan
29985;BME280;17387;42.690;23.328;2022-10-17T00:29:47;47634.56;;;-144.02;nan
29985;BME280;17387;42.690;23.328;2022-10-17T00:32:12;47691.44;;;-144.02;nan
29985;BME280;17387;42.690;23.328;2022-10-17T00:34:38;47681.28;;;-144.02;nan
29985;BME280;17387;42.690;23.328;2022-10-17T00:37:03;47677.22;;;-144.02;nan
29985;BME280;17387;42.690;23.328;2022-10-17T00:39:29;47673.16;;;-144.02;nan
29985;BME280;17387;42.690;23.328;2022-10-17T00:41:54;47697.28;;;-144.02;nan
29985;BME280;17387;42.690;23.328;2022-10-17T00:46:59;47685.09;;;-144.02;nan
29985;BME280;17387;42.690;23.328;2022-10-17T00:49:27;47705.66;;;-144.02;nan
29985;BME280;17387;42.690;23.328;2022-10-17T00:52:01;47681.28;;;-144.02;nan
29985;BME280;17387;42.690;23.328;2022-10-17T00:54:33;47689.41;;;-144.02;nan
29985;BME280;17387;42.690;23.328;2022-10-17T00:56:59;47695.50;;;-144.02;nan
29985;BME280;17387;42.690;23.328;2022-10-17T00:59:25;47697.53;;;-144.02;nan
29985;BME280;17387;42.690;23.328;2022-10-17T01:01:58;47713.78;;;-144.02;nan
29985;BME280;17387;42.690;23.328;2022-10-17T01:04:24;47673.16;;;-144.02;nan
29985;BME280;17387;42.690;23.328;2022-10-17T01:07:10;47717.84;;;-144.02;nan
29985;BME280;17387;42.690;23.328;2022-10-17T01:09:35;47717.84;;;-144.02;nan
29985;BME280;17387;42.690;23.328;2022-10-17T01:17:54;47701.59;;;-144.02;nan
29985;BME280;17387;42.690;23.328;2022-10-17T01:26:55;47725.97;;;-144.02;nan
29985;BME280;17387;42.690;23.328;2022-10-17T01:32:11;47707.69;;;-144.02;nan
29985;BME280;17387;42.690;23.328;2022-10-17T01:37:43;47709.72;;;-144.02;nan
29985;BME280;17387;42.690;23.328;2022-10-17T01:40:15;47730.03;;;-144.02;nan
29985;BME280;17387;42.690;23.328;2022-10-17T01:45:52;47689.41;;;-144.02;nan
29985;BME280;17387;42.690;23.328;2022-10-17T01:48:22;47660.97;;;-144.02;nan
29985;BME280;17387;42.690;23.328;2022-10-17T01:50:55;47734.09;;;-144.02;nan
29985;BME280;17387;42.690;23.328;2022-10-17T01:53:30;47703.63;;;-144.02;nan
29985;BME280;17387;42.690;23.328;2022-10-17T01:55:59;47695.50;;;-144.02;nan
29985;BME280;17387;42.690;23.328;2022-10-17T01:58:30;47723.94;;;-144.02;nan
29985;BME280;17387;42.690;23.328;2022-10-17T02:00:58;47671.13;;;-144.02;nan
29985;BME280;17387;42.690;23.328;2022-10-17T02:03:26;47695.50;;;-144.02;nan
29985;BME280;17387;42.690;23.328;2022-10-17T02:05:52;47673.16;;;-144.02;nan
29985;BME280;17387;42.690;23.328;2022-10-17T02:08:49;47697.53;;;-144.02;nan
29985;BME280;17387;42.690;23.328;2022-10-17T02:11:23;47697.53;;;-144.02;nan
29985;BME280;17387;42.690;23.328;2022-10-17T02:17:12;47758.47;;;-144.02;nan
29985;BME280;17387;42.690;23.328;2022-10-17T02:24:58;47711.75;;;-144.02;nan
29985;BME280;17387;42.690;23.328;2022-10-17T02:35:16;47717.84;;;-144.02;nan
29985;BME280;17387;42.690;23.328;2022-10-17T02:37:44;47695.50;;;-144.02;nan
29985;BME280;17387;42.690;23.328;2022-10-17T02:40:12;47673.16;;;-144.02;nan
29985;BME280;17387;42.690;23.328;2022-10-17T02:42:41;47723.94;;;-144.02;nan
29985;BME280;17387;42.690;23.328;2022-10-17T02:45:09;47721.91;;;-144.02;nan
29985;BME280;17387;42.690;23.328;2022-10-17T02:50:09;47671.13;;;-144.02;nan
29985;BME280;17387;42.690;23.328;2022-10-17T02:52:51;47707.69;;;-144.02;nan
29985;BME280;17387;42.690;23.328;2022-10-17T02:55:29;47689.41;;;-144.02;nan
29985;BME280;17387;42.690;23.328;2022-10-17T02:57:59;47683.31;;;-144.02;nan
29985;BME280;17387;42.690;23.328;2022-10-17T03:00:27;47701.59;;;-144.02;nan
29985;BME280;17387;42.690;23.328;2022-10-17T03:02:54;47725.97;;;-144.02;nan
29985;BME280;17387;42.690;23.328;2022-10-17T03:05:25;47734.09;;;-144.02;nan
29985;BME280;17387;42.690;23.328;2022-10-17T03:07:52;47683.31;;;-144.02;nan
29985;BME280;17387;42.690;23.328;2022-10-17T03:10:18;47770.66;;;-144.02;nan
29985;BME280;17387;42.690;23.328;2022-10-17T03:12:43;47713.78;;;-144.02;nan
29985;BME280;17387;42.690;23.328;2022-10-17T03:15:10;47701.59;;;-144.02;nan
29985;BME280;17387;42.690;23.328;2022-10-17T03:17:35;47707.69;;;-144.02;nan
29985;BME280;17387;42.690;23.328;2022-10-17T03:20:02;47734.09;;;-144.02;nan
29985;BME280;17387;42.690;23.328;2022-10-17T03:22:27;47697.53;;;-144.02;nan
29985;BME280;17387;42.690;23.328;2022-10-17T03:24:55;47705.66;;;-144.02;nan
29985;BME280;17387;42.690;23.328;2022-10-17T03:27:20;47697.53;;;-144.02;nan
29985;BME280;17387;42.690;23.328;2022-10-17T03:29:46;47669.09;;;-144.02;nan
29985;BME280;17387;42.690;23.328;2022-10-17T03:32:12;47681.28;;;-144.02;nan
29985;BME280;17387;42.690;23.328;2022-10-17T03:34:37;47701.59;;;-144.02;nan
29985;BME280;17387;42.690;23.328;2022-10-17T03:37:03;47705.66;;;-144.02;nan
29985;BME280;17387;42.690;23.328;2022-10-17T03:39:28;47728.00;;;-144.02;nan
29985;BME280;17387;42.690;23.328;2022-10-17T03:41:54;47705.66;;;-144.02;nan
29985;BME280;17387;42.690;23.328;2022-10-17T03:44:19;47689.41;;;-144.02;nan
29985;BME280;17387;42.690;23.328;2022-10-17T03:46:44;47713.78;;;-144.02;nan
29985;BME280;17387;42.690;23.328;2022-10-17T03:49:10;47713.78;;;-144.02;nan
29985;BME280;17387;42.690;23.328;2022-10-17T03:51:35;47707.69;;;-144.02;nan
29985;BME280;17387;42.690;23.328;2022-10-17T03:54:21;47734.09;;;-144.02;nan
29985;BME280;17387;42.690;23.328;2022-10-17T03:56:46;47854.69;;;-144.02;nan
29985;BME280;17387;42.690;23.328;2022-10-17T03:59:12;47709.72;;;-144.02;nan
29985;BME280;17387;42.690;23.328;2022-10-17T04:01:58;47683.31;;;-144.02;nan
29985;BME280;17387;42.690;23.328;2022-10-17T04:04:23;47697.53;;;-144.02;nan
29985;BME280;17387;42.690;23.328;2022-10-17T04:06:49;47665.03;;;-144.02;nan
29985;BME280;17387;42.690;23.328;2022-10-17T04:09:14;47774.72;;;-144.02;nan
29985;BME280;17387;42.690;23.328;2022-10-17T04:11:40;47713.78;;;-144.02;nan
29985;BME280;17387;42.690;23.328;2022-10-17T04:14:05;47652.84;;;-144.02;nan
29985;BME280;17387;42.690;23.328;2022-10-17T04:16:31;47734.09;;;-144.02;nan
29985;BME280;17387;42.690;23.328;2022-10-17T04:18:58;47719.88;;;-144.02;nan
29985;BME280;17387;42.690;23.328;2022-10-17T04:21:25;47736.13;;;-144.02;nan
29985;BME280;17387;42.690;23.328;2022-10-17T04:23:56;47673.16;;;-144.02;nan
29985;BME280;17387;42.690;23.328;2022-10-17T04:26:22;47699.56;;;-144.02;nan
29985;BME280;17387;42.690;23.328;2022-10-17T04:28:49;47748.31;;;-144.02;nan
29985;BME280;17387;42.690;23.328;2022-10-17T04:31:15;47705.66;;;-144.02;nan
29985;BME280;17387;42.690;23.328;2022-10-17T04:33:41;47728.00;;;-144.02;nan
29985;BME280;17387;42.690;23.328;2022-10-17T04:36:10;47729.78;;;-144.02;nan
29985;BME280;17387;42.690;23.328;2022-10-17T04:38:35;47717.84;;;-144.02;nan
29985;BME280;17387;42.690;23.328;2022-10-17T04:41:03;47721.91;;;-144.02;nan
29985;BME280;17387;42.690;23.328;2022-10-17T04:43:30;47697.53;;;-144.02;nan
29985;BME280;17387;42.690;23.328;2022-10-17T04:46:01;47721.91;;;-144.02;nan
29985;BME280;17387;42.690;23.328;2022-10-17T04:48:28;47677.22;;;-144.02;nan
29985;BME280;17387;42.690;23.328;2022-10-17T04:51:04;47715.81;;;-144.02;nan
29985;BME280;17387;42.690;23.328;2022-10-17T04:53:32;47762.53;;;-144.02;nan
29985;BME280;17387;42.690;23.328;2022-10-17T04:55:58;47612.22;;;-144.02;nan
29985;BME280;17387;42.690;23.328;2022-10-17T04:58:23;47721.91;;;-144.02;nan
29985;BME280;17387;42.690;23.328;2022-10-17T05:00:48;47673.16;;;-144.02;nan
29985;BME280;17387;42.690;23.328;2022-10-17T05:03:14;47711.75;;;-144.02;nan
29985;BME280;17387;42.690;23.328;2022-10-17T05:05:40;47717.84;;;-144.02;nan
29985;BME280;17387;42.690;23.328;2022-10-17T05:08:07;47723.94;;;-144.02;nan
29985;BME280;17387;42.690;23.328;2022-10-17T05:10:38;47707.69;;;-144.02;nan
29985;BME280;17387;42.690;23.328;2022-10-17T05:13:04;47669.09;;;-144.02;nan
29985;BME280;17387;42.690;23.328;2022-10-17T05:15:30;47730.03;;;-144.02;nan
29985;BME280;17387;42.690;23.328;2022-10-17T05:17:55;47742.22;;;-144.02;nan
29985;BME280;17387;42.690;23.328;2022-10-17T05:20:21;47723.94;;;-144.02;nan
29985;BME280;17387;42.690;23.328;2022-10-17T05:22:47;47705.66;;;-144.02;nan
29985;BME280;17387;42.690;23.328;2022-10-17T05:25:13;47697.53;;;-144.02;nan
29985;BME280;17387;42.690;23.328;2022-10-17T05:27:38;47721.91;;;-144.02;nan
29985;BME280;17387;42.690;23.328;2022-10-17T05:30:05;47705.66;;;-144.02;nan
29985;BME280;17387;42.690;23.328;2022-10-17T05:32:30;47709.72;;;-144.02;nan
29985;BME280;17387;42.690;23.328;2022-10-17T05:34:56;47707.44;;;-144.02;nan
29985;BME280;17387;42.690;23.328;2022-10-17T05:37:21;47691.44;;;-144.02;nan
29985;BME280;17387;42.690;23.328;2022-10-17T05:39:46;47717.84;;;-144.02;nan
29985;BME280;17387;42.690;23.328;2022-10-17T05:42:12;47677.22;;;-144.02;nan
29985;BME280;17387;42.690;23.328;2022-10-17T05:44:37;47705.66;;;-144.02;nan
29985;BME280;17387;42.690;23.328;2022-10-17T05:47:04;47715.81;;;-144.02;nan
29985;BME280;17387;42.690;23.328;2022-10-17T05:49:29;47689.41;;;-144.02;nan
29985;BME280;17387;42.690;23.328;2022-10-17T05:51:54;47719.88;;;-144.02;nan
29985;BME280;17387;42.690;23.328;2022-10-17T05:54:20;47663.00;;;-144.02;nan
29985;BME280;17387;42.690;23.328;2022-10-17T05:56:50;47707.69;;;-144.02;nan
29985;BME280;17387;42.690;23.328;2022-10-17T05:59:16;47697.53;;;-144.02;nan
29985;BME280;17387;42.690;23.328;2022-10-17T06:01:41;47709.72;;;-144.02;nan
29985;BME280;17387;42.690;23.328;2022-10-17T06:04:07;47685.34;;;-144.02;nan
29985;BME280;17387;42.690;23.328;2022-10-17T06:06:35;47713.53;;;-144.02;nan
29985;BME280;17387;42.690;23.328;2022-10-17T06:09:00;47677.22;;;-144.02;nan
29985;BME280;17387;42.690;23.328;2022-10-17T06:11:26;47685.34;;;-144.02;nan
29985;BME280;17387;42.690;23.328;2022-10-17T06:13:51;47721.91;;;-144.02;nan
29985;BME280;17387;42.690;23.328;2022-10-17T06:16:16;47665.03;;;-144.02;nan
29985;BME280;17387;42.690;23.328;2022-10-17T06:18:42;47679.25;;;-144.02;nan
29985;BME280;17387;42.690;23.328;2022-10-17T06:21:09;47697.53;;;-144.02;nan
29985;BME280;17387;42.690;23.328;2022-10-17T06:23:35;47665.03;;;-144.02;nan
29985;BME280;17387;42.690;23.328;2022-10-17T06:26:03;47701.59;;;-144.02;nan
29985;BME280;17387;42.690;23.328;2022-10-17T06:28:29;47687.38;;;-144.02;nan
29985;BME280;17387;42.690;23.328;2022-10-17T06:30:54;47713.78;;;-144.02;nan
29985;BME280;17387;42.690;23.328;2022-10-17T06:33:20;47681.28;;;-144.02;nan
29985;BME280;17387;42.690;23.328;2022-10-17T06:35:51;47685.34;;;-144.02;nan
29985;BME280;17387;42.690;23.328;2022-10-17T06:38:17;47675.19;;;-144.02;nan
29985;BME280;17387;42.690;23.328;2022-10-17T06:40:45;47685.34;;;-144.02;nan
29985;BME280;17387;42.690;23.328;2022-10-17T06:43:10;47713.78;;;-144.02;nan
29985;BME280;17387;42.690;23.328;2022-10-17T06:45:40;47717.84;;;-144.02;nan
29985;BME280;17387;42.690;23.328;2022-10-17T06:48:06;47685.34;;;-144.02;nan
29985;BME280;17387;42.690;23.328;2022-10-17T06:50:31;47673.16;;;-144.02;nan
29985;BME280;17387;42.690;23.328;2022-10-17T06:52:57;47673.16;;;-144.02;nan
29985;BME280;17387;42.690;23.328;2022-10-17T06:55:22;47693.47;;;-144.02;nan
29985;BME280;17387;42.690;23.328;2022-10-17T06:57:53;47638.63;;;-144.02;nan
29985;BME280;17387;42.690;23.328;2022-10-17T07:00:19;47638.63;;;-144.02;nan
29985;BME280;17387;42.690;23.328;2022-10-17T07:02:44;47693.47;;;-144.02;nan
29985;BME280;17387;42.690;23.328;2022-10-17T07:05:10;47660.97;;;-144.02;nan
29985;BME280;17387;42.690;23.328;2022-10-17T07:07:35;47725.97;;;-144.02;nan
29985;BME280;17387;42.690;23.328;2022-10-17T07:10:01;47665.03;;;-144.02;nan
29985;BME280;17387;42.690;23.328;2022-10-17T07:12:33;47658.94;;;-144.02;nan
29985;BME280;17387;42.690;23.328;2022-10-17T07:14:59;47719.88;;;-144.02;nan
29985;BME280;17387;42.690;23.328;2022-10-17T07:17:24;47669.09;;;-144.02;nan
29985;BME280;17387;42.690;23.328;2022-10-17T07:19:50;47660.97;;;-144.02;nan
29985;BME280;17387;42.690;23.328;2022-10-17T07:22:15;47636.59;;;-144.02;nan
29985;BME280;17387;42.690;23.328;2022-10-17T07:24:40;47654.88;;;-144.02;nan
29985;BME280;17387;42.690;23.328;2022-10-17T07:27:09;47656.91;;;-144.02;nan
29985;BME280;17387;42.690;23.328;2022-10-17T07:29:34;47663.00;;;-144.02;nan
29985;BME280;17387;42.690;23.328;2022-10-17T07:32:00;47616.28;;;-144.02;nan
29985;BME280;17387;42.690;23.328;2022-10-17T07:34:28;47608.16;;;-144.02;nan
29985;BME280;17387;42.690;23.328;2022-10-17T07:36:55;47663.00;;;-144.02;nan
29985;BME280;17387;42.690;23.328;2022-10-17T07:39:21;47634.56;;;-144.02;nan
29985;BME280;17387;42.690;23.328;2022-10-17T07:41:48;47670.88;;;-144.02;nan
29985;BME280;17387;42.690;23.328;2022-10-17T07:44:13;47673.16;;;-144.02;nan
29985;BME280;17387;42.690;23.328;2022-10-17T07:46:39;47695.50;;;-144.02;nan
29985;BME280;17387;42.690;23.328;2022-10-17T07:49:04;47636.59;;;-144.02;nan
29985;BME280;17387;42.690;23.328;2022-10-17T07:51:30;47697.53;;;-144.02;nan
29985;BME280;17387;42.690;23.328;2022-10-17T07:53:55;47663.00;;;-144.02;nan
29985;BME280;17387;42.690;23.328;2022-10-17T07:56:21;47658.69;;;-144.02;nan
29985;BME280;17387;42.690;23.328;2022-10-17T07:58:49;47624.16;;;-144.02;nan
29985;BME280;17387;42.690;23.328;2022-10-17T08:01:15;47648.78;;;-144.02;nan
29985;BME280;17387;42.690;23.328;2022-10-17T08:03:43;47632.53;;;-144.02;nan
29985;BME280;17387;42.690;23.328;2022-10-17T08:06:09;47630.50;;;-144.02;nan
29985;BME280;17387;42.690;23.328;2022-10-17T08:08:34;47640.66;;;-144.02;nan
29985;BME280;17387;42.690;23.328;2022-10-17T08:11:05;47665.03;;;-144.02;nan
29985;BME280;17387;42.690;23.328;2022-10-17T08:13:32;47632.53;;;-144.02;nan
29985;BME280;17387;42.690;23.328;2022-10-17T08:16:02;47618.31;;;-144.02;nan
29985;BME280;17387;42.690;23.328;2022-10-17T08:18:28;47593.94;;;-144.02;nan
29985;BME280;17387;42.690;23.328;2022-10-17T08:20:53;47620.34;;;-144.02;nan
29985;BME280;17387;42.690;23.328;2022-10-17T08:23:19;47663.00;;;-144.02;nan
29985;BME280;17387;42.690;23.328;2022-10-17T08:25:44;47603.84;;;-144.02;nan
29985;BME280;17387;42.690;23.328;2022-10-17T08:28:09;47616.28;;;-144.02;nan
29985;BME280;17387;42.690;23.328;2022-10-17T08:30:35;47591.91;;;-144.02;nan
29985;BME280;17387;42.690;23.328;2022-10-17T08:33:00;47583.53;;;-144.02;nan
29985;BME280;17387;42.690;23.328;2022-10-17T08:35:26;47632.53;;;-144.02;nan
29985;BME280;17387;42.690;23.328;2022-10-17T08:37:51;47618.06;;;-144.02;nan
29985;BME280;17387;42.690;23.328;2022-10-17T08:40:23;47587.84;;;-144.02;nan
29985;BME280;17387;42.690;23.328;2022-10-17T08:46:35;47650.81;;;-144.02;nan
29985;BME280;17387;42.690;23.328;2022-10-17T08:49:06;47607.91;;;-144.02;nan
29985;BME280;17387;42.690;23.328;2022-10-17T08:51:39;47614.25;;;-144.02;nan
29985;BME280;17387;42.690;23.328;2022-10-17T08:54:15;47567.53;;;-144.02;nan
29985;BME280;17387;42.690;23.328;2022-10-17T08:56:44;47587.84;;;-144.02;nan
29985;BME280;17387;42.690;23.328;2022-10-17T08:59:17;47567.53;;;-144.02;nan
29985;BME280;17387;42.690;23.328;2022-10-17T09:02:08;47591.91;;;-144.02;nan
29985;BME280;17387;42.690;23.328;2022-10-17T09:05:02;47593.94;;;-144.02;nan
29985;BME280;17387;42.690;23.328;2022-10-17T09:10:17;47577.69;;;-144.02;nan
29985;BME280;17387;42.690;23.328;2022-10-17T09:19:02;47575.66;;;-144.02;nan
29985;BME280;17387;42.690;23.328;2022-10-17T09:21:54;47571.59;;;-144.02;nan
29985;BME280;17387;42.690;23.328;2022-10-17T09:24:41;47563.47;;;-144.02;nan
29985;BME280;17387;42.690;23.328;2022-10-17T09:27:18;47583.78;;;-144.02;nan
29985;BME280;17387;42.690;23.328;2022-10-17T09:29:48;47571.38;;;-144.02;nan
29985;BME280;17387;42.690;23.328;2022-10-17T09:32:18;47542.94;;;-144.02;nan
29985;BME280;17387;42.690;23.328;2022-10-17T09:34:45;47534.81;;;-144.02;nan
29985;BME280;17387;42.690;23.328;2022-10-17T09:37:13;47526.91;;;-144.02;nan
29985;BME280;17387;42.690;23.328;2022-10-17T09:39:39;47571.59;;;-144.02;nan
29985;BME280;17387;42.690;23.328;2022-10-17T09:42:09;47587.84;;;-144.02;nan
29985;BME280;17387;42.690;23.328;2022-10-17T09:45:03;47575.66;;;-144.02;nan
29985;BME280;17387;42.690;23.328;2022-10-17T09:47:46;47608.16;;;-144.02;nan
29985;BME280;17387;42.690;23.328;2022-10-17T09:50:24;47569.56;;;-144.02;nan
29985;BME280;17387;42.690;23.328;2022-10-17T09:52:52;47543.16;;;-144.02;nan
29985;BME280;17387;42.690;23.328;2022-10-17T09:55:29;47522.84;;;-144.02;nan
29985;BME280;17387;42.690;23.328;2022-10-17T09:57:59;47581.75;;;-144.02;nan
29985;BME280;17387;42.690;23.328;2022-10-17T10:00:28;47575.66;;;-144.02;nan
29985;BME280;17387;42.690;23.328;2022-10-17T10:03:23;47563.47;;;-144.02;nan
29985;BME280;17387;42.690;23.328;2022-10-17T10:06:02;47581.75;;;-144.02;nan
29985;BME280;17387;42.690;23.328;2022-10-17T10:08:36;47551.06;;;-144.02;nan
29985;BME280;17387;42.690;23.328;2022-10-17T10:11:13;47549.03;;;-144.02;nan
29985;BME280;17387;42.690;23.328;2022-10-17T10:13:38;47528.72;;;-144.02;nan
29985;BME280;17387;42.690;23.328;2022-10-17T10:16:16;47542.94;;;-144.02;nan
29985;BME280;17387;42.690;23.328;2022-10-17T10:18:43;47502.31;;;-144.02;nan
29985;BME280;17387;42.690;23.328;2022-10-17T10:21:18;47544.97;;;-144.02;nan
29985;BME280;17387;42.690;23.328;2022-10-17T10:26:38;47514.72;;;-144.02;nan
29985;BME280;17387;42.690;23.328;2022-10-17T10:29:17;47508.63;;;-144.02;nan
29985;BME280;17387;42.690;23.328;2022-10-17T10:31:46;47571.59;;;-144.02;nan
29985;BME280;17387;42.690;23.328;2022-10-17T10:34:21;47510.66;;;-144.02;nan
29985;BME280;17387;42.690;23.328;2022-10-17T10:39:33;47557.16;;;-144.02;nan
29985;BME280;17387;42.690;23.328;2022-10-17T10:42:02;47526.91;;;-144.02;nan
29985;BME280;17387;42.690;23.328;2022-10-17T10:44:31;47579.72;;;-144.02;nan
29985;BME280;17387;42.690;23.328;2022-10-17T10:47:13;47524.66;;;-144.02;nan
29985;BME280;17387;42.690;23.328;2022-10-17T10:49:40;47593.94;;;-144.02;nan
29985;BME280;17387;42.690;23.328;2022-10-17T10:52:09;47547.22;;;-144.02;nan
29985;BME280;17387;42.690;23.328;2022-10-17T10:54:43;47533.00;;;-144.02;nan
29985;BME280;17387;42.690;23.328;2022-10-17T10:57:15;47522.63;;;-144.02;nan
29985;BME280;17387;42.690;23.328;2022-10-17T11:00:08;47514.50;;;-144.02;nan
29985;BME280;17387;42.690;23.328;2022-10-17T11:02:47;47514.50;;;-144.02;nan
29985;BME280;17387;42.690;23.328;2022-10-17T11:05:26;47540.91;;;-144.02;nan
29985;BME280;17387;42.690;23.328;2022-10-17T11:08:17;47544.97;;;-144.02;nan
29985;BME280;17387;42.690;23.328;2022-10-17T11:13:39;47551.06;;;-144.02;nan
29985;BME280;17387;42.690;23.328;2022-10-17T11:19:10;47502.31;;;-144.02;nan
29985;BME280;17387;42.690;23.328;2022-10-17T11:27:26;47530.75;;;-144.02;nan
29985;BME280;17387;42.690;23.328;2022-10-17T11:29:52;47522.63;;;-144.02;nan
29985;BME280;17387;42.690;23.328;2022-10-17T11:32:52;47512.69;;;-144.02;nan
29985;BME280;17387;42.690;23.328;2022-10-17T11:35:40;47559.41;;;-144.02;nan
29985;BME280;17387;42.690;23.328;2022-10-17T11:38:21;47488.09;;;-144.02;nan
29985;BME280;17387;42.690;23.328;2022-10-17T11:40:51;47494.19;;;-144.02;nan
29985;BME280;17387;42.690;23.328;2022-10-17T11:43:30;47482.00;;;-144.02;nan
29985;BME280;17387;42.690;23.328;2022-10-17T11:46:10;47492.38;;;-144.02;nan
29985;BME280;17387;42.690;23.328;2022-10-17T11:48:47;47502.53;;;-144.02;nan
29985;BME280;17387;42.690;23.328;2022-10-17T11:51:15;47494.19;;;-144.02;nan
29985;BME280;17387;42.690;23.328;2022-10-17T11:53:56;47528.72;;;-144.02;nan
29985;BME280;17387;42.690;23.328;2022-10-17T11:57:16;47543.16;;;-144.02;nan
29985;BME280;17387;42.690;23.328;2022-10-17T11:59:57;47502.53;;;-144.02;nan
29985;BME280;17387;42.690;23.328;2022-10-17T12:05:44;47480.19;;;-144.02;nan
29985;BME280;17387;42.690;23.328;2022-10-17T12:13:47;47490.34;;;-144.02;nan
29985;BME280;17387;42.690;23.328;2022-10-17T12:24:41;47526.91;;;-144.02;nan
29985;BME280;17387;42.690;23.328;2022-10-17T12:30:14;47498.47;;;-144.02;nan
29985;BME280;17387;42.690;23.328;2022-10-17T12:33:03;47530.75;;;-144.02;nan
29985;BME280;17387;42.690;23.328;2022-10-17T12:35:32;47535.03;;;-144.02;nan
29985;BME280;17387;42.690;23.328;2022-10-17T12:38:02;47555.13;;;-144.02;nan
29985;BME280;17387;42.690;23.328;2022-10-17T12:42:59;47533.00;;;-144.02;nan
29985;BME280;17387;42.690;23.328;2022-10-17T12:51:12;47494.19;;;-144.02;nan
29985;BME280;17387;42.690;23.328;2022-10-17T12:59:00;47459.66;;;-144.02;nan
29985;BME280;17387;42.690;23.328;2022-10-17T13:01:31;47453.78;;;-144.02;nan
29985;BME280;17387;42.690;23.328;2022-10-17T13:03:59;47433.25;;;-144.02;nan
29985;BME280;17387;42.690;23.328;2022-10-17T13:06:33;47465.97;;;-144.02;nan
29985;BME280;17387;42.690;23.328;2022-10-17T13:09:07;47490.13;;;-144.02;nan
29985;BME280;17387;42.690;23.328;2022-10-17T13:11:36;47461.69;;;-144.02;nan
29985;BME280;17387;42.690;23.328;2022-10-17T13:14:10;47451.53;;;-144.02;nan
29985;BME280;17387;42.690;23.328;2022-10-17T13:16:49;47457.84;;;-144.02;nan
29985;BME280;17387;42.690;23.328;2022-10-17T13:19:17;47482.00;;;-144.02;nan
29985;BME280;17387;42.690;23.328;2022-10-17T13:21:56;47441.38;;;-144.02;nan
29985;BME280;17387;42.690;23.328;2022-10-17T13:24:30;47477.94;;;-144.02;nan
29985;BME280;17387;42.690;23.328;2022-10-17T13:26:57;47455.59;;;-144.02;nan
29985;BME280;17387;42.690;23.328;2022-10-17T13:29:23;47453.56;;;-144.02;nan
29985;BME280;17387;42.690;23.328;2022-10-17T13:31:55;47453.78;;;-144.02;nan
29985;BME280;17387;42.690;23.328;2022-10-17T13:34:23;47429.41;;;-144.02;nan
29985;BME280;17387;42.690;23.328;2022-10-17T13:37:02;47400.97;;;-144.02;nan
29985;BME280;17387;42.690;23.328;2022-10-17T13:39:33;47417.00;;;-144.02;nan
29985;BME280;17387;42.690;23.328;2022-10-17T13:42:00;47502.31;;;-144.02;nan
29985;BME280;17387;42.690;23.328;2022-10-17T13:44:31;47477.94;;;-144.02;nan
29985;BME280;17387;42.690;23.328;2022-10-17T13:46:58;47437.31;;;-144.02;nan
29985;BME280;17387;42.690;23.328;2022-10-17T13:49:39;47429.19;;;-144.02;nan
29985;BME280;17387;42.690;23.328;2022-10-17T13:52:12;47429.41;;;-144.02;nan
29985;BME280;17387;42.690;23.328;2022-10-17T13:54:44;47441.38;;;-144.02;nan
29985;BME280;17387;42.690;23.328;2022-10-17T13:59:45;47445.66;;;-144.02;nan
29985;BME280;17387;42.690;23.328;2022-10-17T14:02:29;47437.53;;;-144.02;nan
29985;BME280;17387;42.690;23.328;2022-10-17T14:05:15;47406.84;;;-144.02;nan
29985;BME280;17387;42.690;23.328;2022-10-17T14:07:54;47408.88;;;-144.02;nan
29985;BME280;17387;42.690;23.328;2022-10-17T14:10:31;47443.41;;;-144.02;nan
29985;BME280;17387;42.690;23.328;2022-10-17T14:12:57;47431.22;;;-144.02;nan
29985;BME280;17387;42.690;23.328;2022-10-17T14:15:28;47449.50;;;-144.02;nan
29985;BME280;17387;42.690;23.328;2022-10-17T14:18:00;47433.47;;;-144.02;nan
29985;BME280;17387;42.690;23.328;2022-10-17T14:20:26;47433.25;;;-144.02;nan
29985;BME280;17387;42.690;23.328;2022-10-17T14:22:54;47449.72;;;-144.02;nan
29985;BME280;17387;42.690;23.328;2022-10-17T14:25:34;47431.44;;;-144.02;nan
29985;BME280;17387;42.690;23.328;2022-10-17T14:30:36;47496.44;;;-144.02;nan
29985;BME280;17387;42.690;23.328;2022-10-17T14:33:06;47459.66;;;-144.02;nan
29985;BME280;17387;42.690;23.328;2022-10-17T14:35:32;47474.09;;;-144.02;nan
29985;BME280;17387;42.690;23.328;2022-10-17T14:38:01;47473.88;;;-144.02;nan
29985;BME280;17387;42.690;23.328;2022-10-17T14:40:29;47449.72;;;-144.02;nan
29985;BME280;17387;42.690;23.328;2022-10-17T14:42:57;47453.78;;;-144.02;nan
29985;BME280;17387;42.690;23.328;2022-10-17T14:48:06;47449.72;;;-144.02;nan
29985;BME280;17387;42.690;23.328;2022-10-17T14:50:33;47469.81;;;-144.02;nan
29985;BME280;17387;42.690;23.328;2022-10-17T14:53:27;47510.66;;;-144.02;nan
29985;BME280;17387;42.690;23.328;2022-10-17T14:55:59;47510.66;;;-144.02;nan
29985;BME280;17387;42.690;23.328;2022-10-17T14:58:27;47518.56;;;-144.02;nan